createdAt,value
2019-05-01T00:00:25.613Z,165605.95
2019-05-01T00:03:07.897Z,165585.92
2019-05-01T00:05:38.782Z,165560.55
2019-05-01T00:08:08.136Z,165560.55
2019-05-01T00:10:36.497Z,165569.94
2019-05-01T00:13:05.839Z,165560.55
2019-05-01T00:15:36.333Z,165540.58
2019-05-01T00:18:05.107Z,165555.27
2019-05-01T00:20:33.371Z,165555.27
2019-05-01T00:23:01.559Z,165556.56
2019-05-01T00:25:30.322Z,165552.56
2019-05-01T00:27:59.680Z,165527.19
2019-05-01T00:30:30.296Z,165512.50
2019-05-01T00:32:58.711Z,165476.50
2019-05-01T00:35:27.373Z,165481.84
2019-05-01T00:37:55.831Z,165495.19
2019-05-01T00:40:23.968Z,165515.20
2019-05-01T00:42:52.954Z,165521.84
2019-05-01T00:45:21.778Z,165512.50
2019-05-01T00:47:50.539Z,165495.19
2019-05-01T00:50:19.302Z,165465.83
2019-05-01T00:52:48.025Z,165527.19
2019-05-01T00:55:35.397Z,165492.53
2019-05-01T00:58:18.094Z,165491.19
2019-05-01T01:01:21.272Z,165441.81
2019-05-01T01:03:50.042Z,165471.17
2019-05-01T01:06:18.190Z,165463.17
2019-05-01T01:08:46.530Z,165465.83
2019-05-01T01:11:14.761Z,165451.14
2019-05-01T01:13:42.966Z,165457.84
2019-05-01T01:16:11.629Z,165463.17
2019-05-01T01:18:40.163Z,165444.50
2019-05-01T01:21:09.065Z,165487.19
2019-05-01T01:23:38.795Z,165503.17
2019-05-01T01:26:07.543Z,165484.50
2019-05-01T01:28:36.209Z,165512.50
2019-05-01T01:31:04.590Z,165475.16
2019-05-01T01:33:32.930Z,165469.81
2019-05-01T01:36:01.770Z,165492.53
2019-05-01T01:38:30.045Z,165499.17
2019-05-01T01:40:58.584Z,165471.17
2019-05-01T01:43:52.733Z,165463.17
2019-05-01T01:46:23.241Z,165473.81
2019-05-01T01:48:51.423Z,165469.81
2019-05-01T01:51:20.567Z,165449.80
2019-05-01T01:53:50.844Z,165476.50
2019-05-01T01:56:19.538Z,165481.84
2019-05-01T01:58:48.307Z,165469.81
2019-05-01T02:01:36.320Z,165440.47
2019-05-01T02:04:12.740Z,165412.45
2019-05-01T02:06:40.886Z,165463.17
2019-05-01T02:09:10.032Z,165463.17
2019-05-01T02:11:38.268Z,165489.84
2019-05-01T02:14:06.444Z,165480.50
2019-05-01T02:16:34.593Z,165472.52
2019-05-01T02:19:03.211Z,165477.86
2019-05-01T02:21:31.605Z,165468.52
2019-05-01T02:23:59.783Z,165473.81
2019-05-01T02:26:31.818Z,165501.88
2019-05-01T02:29:07.310Z,165492.53
2019-05-01T02:31:41.797Z,165521.84
2019-05-01T02:34:10.993Z,165480.50
2019-05-01T02:36:41.025Z,165471.17
2019-05-01T02:39:09.457Z,165479.16
2019-05-01T02:41:42.687Z,165488.50
2019-05-01T02:44:21.196Z,165476.50
2019-05-01T02:46:52.752Z,165496.53
2019-05-01T02:49:51.602Z,165508.52
2019-05-01T02:52:24.593Z,165508.52
2019-05-01T02:54:56.689Z,165519.20
2019-05-01T02:57:26.544Z,165496.53
2019-05-01T02:59:57.343Z,165489.84
2019-05-01T03:02:27.942Z,165488.50
2019-05-01T03:04:58.363Z,165492.53
2019-05-01T03:07:32.858Z,165497.83
2019-05-01T03:10:03.658Z,165517.86
2019-05-01T03:12:37.842Z,165516.56
2019-05-01T03:15:06.426Z,165499.17
2019-05-01T03:17:55.541Z,165519.20
2019-05-01T03:20:35.228Z,165524.55
2019-05-01T03:23:36.072Z,165515.20
2019-05-01T03:26:05.073Z,165469.81
2019-05-01T03:28:33.400Z,165436.47
2019-05-01T03:31:02.634Z,165468.52
2019-05-01T03:33:31.613Z,165457.84
2019-05-01T03:36:00.193Z,165417.80
2019-05-01T03:38:29.642Z,165447.16
2019-05-01T03:41:00.027Z,165456.48
2019-05-01T03:43:28.389Z,165487.19
2019-05-01T03:45:57.066Z,165407.11
2019-05-01T03:48:26.462Z,165416.45
2019-05-01T03:50:54.855Z,165440.47
2019-05-01T03:53:24.794Z,165463.17
2019-05-01T03:55:53.690Z,165420.48
2019-05-01T03:58:22.537Z,165444.50
2019-05-01T04:01:06.644Z,165463.17
2019-05-01T04:03:40.548Z,165421.78
2019-05-01T04:06:09.031Z,165464.47
2019-05-01T04:08:38.003Z,165440.47
2019-05-01T04:11:06.680Z,165459.19
2019-05-01T04:13:34.841Z,165460.48
2019-05-01T04:16:04.087Z,165468.52
2019-05-01T04:18:33.361Z,165467.17
2019-05-01T04:21:02.577Z,165444.50
2019-05-01T04:23:31.227Z,165452.50
2019-05-01T04:25:59.921Z,165457.84
2019-05-01T04:29:03.841Z,165452.50
2019-05-01T04:31:51.682Z,165397.78
2019-05-01T04:34:30.052Z,165403.12
2019-05-01T04:37:00.774Z,165389.78
2019-05-01T04:39:29.255Z,165395.13
2019-05-01T04:41:57.817Z,165437.81
2019-05-01T04:44:26.249Z,165453.84
2019-05-01T04:46:55.062Z,165473.81
2019-05-01T04:49:23.393Z,165469.81
2019-05-01T04:51:51.885Z,165481.84
2019-05-01T04:54:21.768Z,165471.17
2019-05-01T04:56:51.060Z,165468.52
2019-05-01T04:59:19.869Z,165457.84
2019-05-01T05:01:57.070Z,165496.53
2019-05-01T05:04:25.737Z,165503.17
2019-05-01T05:06:54.707Z,165465.83
2019-05-01T05:09:43.545Z,165504.53
2019-05-01T05:12:22.027Z,165463.17
2019-05-01T05:14:56.541Z,165531.25
2019-05-01T05:17:25.797Z,165529.89
2019-05-01T05:19:55.021Z,165537.88
2019-05-01T05:22:24.488Z,165489.84
2019-05-01T05:24:54.451Z,165471.17
2019-05-01T05:27:24.359Z,165499.17
2019-05-01T05:29:56.335Z,165485.84
2019-05-01T05:32:27.708Z,165507.22
2019-05-01T05:34:59.101Z,165472.52
2019-05-01T05:37:37.470Z,165471.17
2019-05-01T05:40:05.961Z,165476.50
2019-05-01T05:42:34.551Z,165465.83
2019-05-01T05:45:03.497Z,165468.52
2019-05-01T05:47:31.999Z,165453.84
2019-05-01T05:50:00.541Z,165460.48
2019-05-01T05:52:38.205Z,165479.16
2019-05-01T05:55:29.107Z,165467.17
2019-05-01T05:58:19.780Z,165444.50
2019-05-01T06:01:17.550Z,165489.84
2019-05-01T06:04:07.234Z,165523.20
2019-05-01T06:07:10.313Z,165503.17
2019-05-01T06:10:03.993Z,165537.88
2019-05-01T06:12:52.711Z,165509.88
2019-05-01T06:15:36.682Z,165569.94
2019-05-01T06:18:11.175Z,165571.25
2019-05-01T06:20:57.041Z,165581.94
2019-05-01T06:23:37.324Z,165565.91
2019-05-01T06:26:43.736Z,165563.25
2019-05-01T06:29:12.943Z,165569.94
2019-05-01T06:31:41.786Z,165583.28
2019-05-01T06:34:10.071Z,165573.94
2019-05-01T06:36:38.313Z,165629.98
2019-05-01T06:39:11.858Z,165612.66
2019-05-01T06:41:43.002Z,165620.64
2019-05-01T06:44:33.544Z,165658.00
2019-05-01T06:47:21.801Z,165588.63
2019-05-01T06:50:22.543Z,165671.34
2019-05-01T06:52:51.753Z,165636.67
2019-05-01T06:55:22.445Z,165718.11
2019-05-01T06:57:51.385Z,165730.09
2019-05-01T07:00:19.658Z,165702.06
2019-05-01T07:02:50.108Z,165742.14
2019-05-01T07:05:21.555Z,165760.83
2019-05-01T07:07:54.820Z,165750.13
2019-05-01T07:10:31.602Z,165735.44
2019-05-01T07:13:04.792Z,165752.83
2019-05-01T07:15:30.504Z,165804.91
2019-05-01T07:18:00.514Z,165824.94
2019-05-01T07:20:54.307Z,165851.69
2019-05-01T07:23:22.688Z,165815.55
2019-05-01T07:25:51.133Z,165788.86
2019-05-01T07:28:19.562Z,165834.34
2019-05-01T07:31:06.201Z,165870.38
2019-05-01T07:33:35.494Z,165861.03
2019-05-01T07:36:07.010Z,165778.17
2019-05-01T07:38:38.371Z,165788.86
2019-05-01T07:41:05.661Z,165877.08
2019-05-01T07:43:48.062Z,165869.03
2019-05-01T07:46:39.474Z,165877.08
2019-05-01T07:49:08.272Z,165901.11
2019-05-01T07:51:42.413Z,165935.86
2019-05-01T07:54:09.253Z,165941.16
2019-05-01T07:56:37.676Z,165954.55
2019-05-01T07:59:06.386Z,165950.50
2019-05-01T08:01:58.379Z,165939.84
2019-05-01T08:04:35.998Z,165949.20
2019-05-01T08:06:58.704Z,166010.66
2019-05-01T08:09:27.766Z,165983.95
2019-05-01T08:11:56.078Z,165913.11
2019-05-01T08:14:24.665Z,165953.20
2019-05-01T08:16:53.065Z,165957.20
2019-05-01T08:19:26.899Z,165931.81
2019-05-01T08:22:10.642Z,166012.00
2019-05-01T08:24:39.023Z,165983.95
2019-05-01T08:27:10.606Z,166054.75
2019-05-01T08:30:12.790Z,165957.20
2019-05-01T08:32:51.368Z,166008.00
2019-05-01T08:35:21.371Z,166048.05
2019-05-01T08:37:49.544Z,166113.56
2019-05-01T08:40:20.433Z,166101.50
2019-05-01T08:42:47.863Z,166086.81
2019-05-01T08:45:40.641Z,166104.20
2019-05-01T08:48:17.455Z,166130.91
2019-05-01T08:50:45.820Z,166065.45
2019-05-01T08:53:18.087Z,166146.97
2019-05-01T08:55:45.084Z,166208.44
2019-05-01T08:58:15.929Z,166162.97
2019-05-01T09:00:45.046Z,166082.81
2019-05-01T09:03:18.680Z,166162.97
2019-05-01T09:05:47.589Z,166184.39
2019-05-01T09:08:16.758Z,166157.63
2019-05-01T09:10:44.996Z,166209.80
2019-05-01T09:13:13.253Z,166239.22
2019-05-01T09:15:43.789Z,166211.09
2019-05-01T09:18:12.288Z,166268.63
2019-05-01T09:20:41.617Z,166216.45
2019-05-01T09:23:14.315Z,166264.63
2019-05-01T09:25:46.753Z,166278.03
2019-05-01T09:28:21.442Z,166354.25
2019-05-01T09:31:01.637Z,166393.03
2019-05-01T09:33:26.249Z,166339.53
2019-05-01T09:35:56.415Z,166331.47
2019-05-01T09:38:24.663Z,166384.97
2019-05-01T09:40:53.124Z,166410.39
2019-05-01T09:43:21.777Z,166451.84
2019-05-01T09:45:50.165Z,166462.55
2019-05-01T09:48:18.735Z,166486.63
2019-05-01T09:50:53.801Z,166360.89
2019-05-01T09:53:34.345Z,166334.19
2019-05-01T09:56:09.857Z,166366.25
2019-05-01T09:58:38.181Z,166435.81
2019-05-01T10:01:06.488Z,166419.75
2019-05-01T10:03:34.656Z,166411.75
2019-05-01T10:06:03.506Z,166455.89
2019-05-01T10:08:34.944Z,166443.83
2019-05-01T10:11:05.109Z,166459.91
2019-05-01T10:13:33.062Z,166463.91
2019-05-01T10:16:01.590Z,166418.41
2019-05-01T10:18:30.349Z,166376.95
2019-05-01T10:20:59.235Z,166442.47
2019-05-01T10:23:27.453Z,166483.97
2019-05-01T10:25:57.581Z,166470.61
2019-05-01T10:28:33.968Z,166449.19
2019-05-01T10:31:19.115Z,166595.02
2019-05-01T10:33:48.552Z,166592.31
2019-05-01T10:36:33.258Z,166553.50
2019-05-01T10:39:01.527Z,166652.59
2019-05-01T10:41:30.488Z,166706.14
2019-05-01T10:43:59.349Z,166639.23
2019-05-01T10:46:27.576Z,166653.95
2019-05-01T10:48:57.388Z,166673.98
2019-05-01T10:51:25.789Z,166585.66
2019-05-01T10:53:54.143Z,166673.98
2019-05-01T10:56:22.514Z,166720.86
2019-05-01T10:58:50.681Z,166665.97
2019-05-01T11:01:38.464Z,166708.80
2019-05-01T11:04:07.330Z,166728.88
2019-05-01T11:06:35.796Z,166742.25
2019-05-01T11:09:06.635Z,166825.25
2019-05-01T11:11:34.907Z,166783.78
2019-05-01T11:14:03.481Z,166842.64
2019-05-01T11:16:32.565Z,166818.53
2019-05-01T11:19:00.801Z,166623.16
2019-05-01T11:21:29.407Z,166818.53
2019-05-01T11:23:57.971Z,166786.42
2019-05-01T11:26:28.270Z,166726.22
2019-05-01T11:28:56.531Z,166631.17
2019-05-01T11:31:31.305Z,166686.05
2019-05-01T11:34:21.990Z,166718.16
2019-05-01T11:37:10.997Z,166553.50
2019-05-01T11:39:51.834Z,166755.67
2019-05-01T11:42:20.089Z,166684.70
2019-05-01T11:44:49.686Z,166799.81
2019-05-01T11:47:18.335Z,166846.69
2019-05-01T11:49:46.946Z,166799.81
2019-05-01T11:52:15.133Z,166854.72
2019-05-01T11:54:43.367Z,166778.41
2019-05-01T11:57:11.880Z,166874.81
2019-05-01T11:59:40.138Z,167003.39
2019-05-01T12:02:08.681Z,166983.28
2019-05-01T12:04:37.226Z,166912.28
2019-05-01T12:07:05.602Z,166673.98
2019-05-01T12:09:35.307Z,166682.05
2019-05-01T12:12:07.453Z,166720.86
2019-05-01T12:14:35.629Z,166839.98
2019-05-01T12:17:16.912Z,166786.42
2019-05-01T12:19:45.318Z,166730.22
2019-05-01T12:22:13.546Z,166774.41
2019-05-01T12:24:42.027Z,166758.33
2019-05-01T12:27:10.224Z,166781.06
2019-05-01T12:29:38.482Z,166823.91
2019-05-01T12:32:06.754Z,166892.19
2019-05-01T12:34:35.915Z,166835.97
2019-05-01T12:37:22.329Z,166948.52
2019-05-01T12:39:51.265Z,167030.20
2019-05-01T12:42:21.518Z,166999.38
2019-05-01T12:44:50.334Z,166908.28
2019-05-01T12:47:25.094Z,167035.56
2019-05-01T12:49:53.526Z,166951.17
2019-05-01T12:52:53.925Z,166945.81
2019-05-01T12:55:54.147Z,166965.91
2019-05-01T12:58:22.350Z,166857.38
2019-05-01T13:00:52.935Z,166848.00
2019-05-01T13:03:21.882Z,166894.91
2019-05-01T13:05:50.238Z,166762.33
2019-05-01T13:08:18.446Z,166744.95
2019-05-01T13:10:47.799Z,166748.97
2019-05-01T13:13:15.996Z,166805.16
2019-05-01T13:15:44.211Z,166861.42
2019-05-01T13:18:12.399Z,166893.53
2019-05-01T13:20:40.553Z,166967.25
2019-05-01T13:23:08.771Z,166850.70
2019-05-01T13:25:37.036Z,166740.94
2019-05-01T13:28:23.930Z,166807.87
2019-05-01T13:31:03.162Z,166771.70
2019-05-01T13:33:31.773Z,166719.50
2019-05-01T13:35:59.939Z,166636.53
2019-05-01T13:38:28.533Z,166789.12
2019-05-01T13:40:56.780Z,166843.98
2019-05-01T13:43:25.197Z,166953.81
2019-05-01T13:45:53.361Z,166947.16
2019-05-01T13:48:22.061Z,167051.61
2019-05-01T13:50:50.380Z,167161.44
2019-05-01T13:53:18.971Z,166988.66
2019-05-01T13:55:47.142Z,166981.98
2019-05-01T13:58:15.787Z,167153.42
2019-05-01T14:00:44.475Z,167146.75
2019-05-01T14:03:12.730Z,167015.47
2019-05-01T14:05:41.241Z,166960.55
2019-05-01T14:08:09.505Z,166991.36
2019-05-01T14:10:37.693Z,167002.03
2019-05-01T14:13:06.687Z,167117.28
2019-05-01T14:15:35.227Z,167078.42
2019-05-01T14:18:03.415Z,167078.42
2019-05-01T14:21:00.214Z,167078.42
2019-05-01T14:23:54.117Z,167099.83
2019-05-01T14:26:22.434Z,167318.31
2019-05-01T14:28:50.645Z,167266.05
2019-05-01T14:31:19.369Z,167216.41
2019-05-01T14:33:47.841Z,167243.22
2019-05-01T14:36:16.093Z,167044.94
2019-05-01T14:38:45.004Z,167217.75
2019-05-01T14:41:13.388Z,167145.41
2019-05-01T14:43:41.881Z,167219.11
2019-05-01T14:46:10.465Z,167249.94
2019-05-01T14:48:38.714Z,167251.30
2019-05-01T14:51:07.026Z,167156.13
2019-05-01T14:53:35.325Z,167204.36
2019-05-01T14:56:04.171Z,167172.17
2019-05-01T14:58:32.479Z,167107.91
2019-05-01T15:01:00.750Z,167243.22
2019-05-01T15:03:29.638Z,167158.78
2019-05-01T15:05:57.808Z,167122.64
2019-05-01T15:08:26.004Z,167094.47
2019-05-01T15:10:54.352Z,167078.42
2019-05-01T15:13:32.870Z,167051.61
2019-05-01T15:16:07.162Z,167051.61
2019-05-01T15:18:54.238Z,167043.59
2019-05-01T15:21:22.407Z,167038.22
2019-05-01T15:23:53.610Z,167065.00
2019-05-01T15:26:21.035Z,166972.62
2019-05-01T15:28:49.302Z,167014.13
2019-05-01T15:31:17.792Z,167032.86
2019-05-01T15:33:48.076Z,166933.72
2019-05-01T15:36:16.225Z,166655.25
2019-05-01T15:38:44.658Z,166853.36
2019-05-01T15:41:41.497Z,166810.52
2019-05-01T15:44:18.167Z,166798.50
2019-05-01T15:46:46.603Z,166815.88
2019-05-01T15:49:15.726Z,166937.73
2019-05-01T15:51:43.974Z,166999.38
2019-05-01T15:54:13.577Z,167007.41
2019-05-01T15:56:41.817Z,167097.17
2019-05-01T15:59:10.102Z,167046.25
2019-05-01T16:01:38.668Z,166845.34
2019-05-01T16:04:07.244Z,166698.06
2019-05-01T16:06:35.696Z,166791.78
2019-05-01T16:09:06.512Z,166742.25
2019-05-01T16:12:05.383Z,166789.12
2019-05-01T16:14:34.952Z,166740.94
2019-05-01T16:17:03.666Z,166663.31
2019-05-01T16:19:33.653Z,166639.23
2019-05-01T16:22:03.887Z,166724.88
2019-05-01T16:24:50.696Z,166708.80
2019-05-01T16:27:37.251Z,166711.50
2019-05-01T16:30:12.373Z,166663.31
2019-05-01T16:32:42.328Z,166649.89
2019-05-01T16:35:10.698Z,166656.59
2019-05-01T16:37:38.908Z,166574.94
2019-05-01T16:40:44.108Z,166556.22
2019-05-01T16:43:13.809Z,166505.34
2019-05-01T16:45:42.093Z,166592.31
2019-05-01T16:48:10.386Z,166581.64
2019-05-01T16:50:38.562Z,166644.59
2019-05-01T16:53:06.826Z,166600.38
2019-05-01T16:55:35.016Z,166605.72
2019-05-01T16:58:05.164Z,166561.56
2019-05-01T17:01:02.054Z,166570.94
2019-05-01T17:03:44.388Z,166578.94
2019-05-01T17:06:22.023Z,166451.84
2019-05-01T17:08:59.622Z,166411.75
2019-05-01T17:11:29.369Z,166455.89
2019-05-01T17:13:57.993Z,166458.55
2019-05-01T17:16:26.481Z,166479.97
2019-05-01T17:18:54.921Z,166457.19
2019-05-01T17:21:23.109Z,166379.61
2019-05-01T17:23:51.728Z,166323.47
2019-05-01T17:26:20.227Z,166312.75
2019-05-01T17:28:48.692Z,166339.53
2019-05-01T17:31:16.881Z,166318.11
2019-05-01T17:33:45.506Z,166359.59
2019-05-01T17:36:14.216Z,166280.69
2019-05-01T17:38:49.216Z,166310.11
2019-05-01T17:41:12.507Z,166209.80
2019-05-01T17:43:44.639Z,166223.16
2019-05-01T17:46:12.046Z,166193.73
2019-05-01T17:48:40.496Z,166162.97
2019-05-01T17:51:08.684Z,166160.33
2019-05-01T17:53:36.829Z,166154.97
2019-05-01T17:56:05.275Z,166184.39
2019-05-01T17:58:33.425Z,166137.63
2019-05-01T18:01:27.760Z,166096.16
2019-05-01T18:04:02.873Z,166108.20
2019-05-01T18:06:33.381Z,166108.20
2019-05-01T18:09:03.134Z,166089.50
2019-05-01T18:11:32.461Z,166064.09
2019-05-01T18:14:00.605Z,166053.41
2019-05-01T18:16:29.154Z,166049.41
2019-05-01T18:18:57.305Z,166032.05
2019-05-01T18:21:25.759Z,166006.66
2019-05-01T18:24:24.591Z,165983.95
2019-05-01T18:27:20.451Z,166016.00
2019-05-01T18:29:52.100Z,165978.59
2019-05-01T18:32:36.350Z,165959.91
2019-05-01T18:35:08.927Z,165990.59
2019-05-01T18:37:41.882Z,165999.94
2019-05-01T18:40:17.582Z,165957.20
2019-05-01T18:42:45.772Z,165983.95
2019-05-01T18:45:48.586Z,166001.30
2019-05-01T18:48:17.599Z,165949.20
2019-05-01T18:50:49.494Z,165903.77
2019-05-01T18:53:17.312Z,165907.77
2019-05-01T18:55:45.662Z,165905.11
2019-05-01T18:58:15.508Z,165886.42
2019-05-01T19:00:43.868Z,165842.33
2019-05-01T19:03:12.228Z,165853.03
2019-05-01T19:05:43.186Z,165855.69
2019-05-01T19:08:11.070Z,165875.72
2019-05-01T19:10:39.327Z,165850.33
2019-05-01T19:13:07.961Z,165826.25
2019-05-01T19:15:36.264Z,165842.33
2019-05-01T19:18:06.018Z,165838.34
2019-05-01T19:20:36.153Z,165812.91
2019-05-01T19:23:04.901Z,165814.25
2019-05-01T19:25:33.353Z,165824.94
2019-05-01T19:28:03.299Z,165842.33
2019-05-01T19:30:33.531Z,165756.83
2019-05-01T19:33:05.360Z,165810.25
2019-05-01T19:35:34.380Z,165808.89
2019-05-01T19:38:04.207Z,165706.06
2019-05-01T19:40:34.622Z,165780.87
2019-05-01T19:43:03.535Z,165818.25
2019-05-01T19:45:32.597Z,165776.88
2019-05-01T19:48:01.009Z,165799.56
2019-05-01T19:50:30.016Z,165794.20
2019-05-01T19:52:59.183Z,165770.17
2019-05-01T19:55:27.420Z,165770.17
2019-05-01T19:57:55.682Z,165720.75
2019-05-01T20:00:54.481Z,165764.83
2019-05-01T20:03:24.040Z,165751.48
2019-05-01T20:05:52.502Z,165787.52
2019-05-01T20:08:20.991Z,165754.13
2019-05-01T20:10:49.619Z,165754.13
2019-05-01T20:13:17.775Z,165751.48
2019-05-01T20:15:46.552Z,165759.47
2019-05-01T20:18:14.789Z,165774.16
2019-05-01T20:20:43.158Z,165775.52
2019-05-01T20:23:11.341Z,165743.44
2019-05-01T20:25:39.629Z,165716.75
2019-05-01T20:28:07.851Z,165714.11
2019-05-01T20:30:36.158Z,165727.45
2019-05-01T20:33:08.150Z,165732.80
2019-05-01T20:35:36.214Z,165714.11
2019-05-01T20:38:04.466Z,165708.77
2019-05-01T20:40:32.726Z,165631.33
2019-05-01T20:43:05.741Z,165623.28
2019-05-01T20:45:31.091Z,165660.70
2019-05-01T20:47:59.325Z,165688.73
2019-05-01T20:50:27.961Z,165694.08
2019-05-01T20:52:56.140Z,165648.66
2019-05-01T20:55:25.112Z,165684.73
2019-05-01T20:58:12.883Z,165636.67
2019-05-01T21:00:41.488Z,165607.31
2019-05-01T21:03:09.689Z,165580.58
2019-05-01T21:05:44.453Z,165619.30
2019-05-01T21:08:15.680Z,165635.33
2019-05-01T21:10:50.661Z,165601.95
2019-05-01T21:13:23.081Z,165591.27
2019-05-01T21:15:49.863Z,165581.94
2019-05-01T21:18:20.986Z,165575.23
2019-05-01T21:20:48.202Z,165581.94
2019-05-01T21:23:16.389Z,165583.28
2019-05-01T21:25:44.529Z,165607.31
2019-05-01T21:28:14.213Z,165584.58
2019-05-01T21:30:43.958Z,165588.63
2019-05-01T21:33:13.909Z,165604.61
2019-05-01T21:35:44.404Z,165545.92
2019-05-01T21:38:13.071Z,165559.25
2019-05-01T21:40:43.555Z,165583.28
2019-05-01T21:43:13.448Z,165551.22
2019-05-01T21:45:43.408Z,165516.56
2019-05-01T21:48:13.633Z,165551.22
2019-05-01T21:50:43.719Z,165560.55
2019-05-01T21:53:12.972Z,165573.94
2019-05-01T21:55:41.227Z,165573.94
2019-05-01T21:58:09.953Z,165540.58
2019-05-01T22:00:40.014Z,165493.84
2019-05-01T22:03:08.635Z,165532.53
2019-05-01T22:05:39.601Z,165504.53
2019-05-01T22:08:08.859Z,165509.88
2019-05-01T22:10:51.096Z,165531.25
2019-05-01T22:13:08.642Z,165520.55
2019-05-01T22:15:42.065Z,165535.23
2019-05-01T22:18:31.246Z,165500.53
2019-05-01T22:21:07.481Z,165508.52
2019-05-01T22:23:55.212Z,165527.19
2019-05-01T22:26:25.518Z,165523.20
2019-05-01T22:28:57.033Z,165535.23
2019-05-01T22:32:03.570Z,165561.91
2019-05-01T22:34:45.099Z,165575.23
2019-05-01T22:37:13.767Z,165557.91
2019-05-01T22:39:44.124Z,165543.22
2019-05-01T22:42:12.698Z,165523.20
2019-05-01T22:44:42.942Z,165516.56
2019-05-01T22:47:15.093Z,165529.89
2019-05-01T22:49:42.065Z,165528.53
2019-05-01T22:52:10.357Z,165537.88
2019-05-01T22:54:39.333Z,165536.53
2019-05-01T22:57:08.104Z,165535.23
2019-05-01T22:59:36.717Z,165547.22
2019-05-01T23:02:14.943Z,165547.22
2019-05-01T23:04:43.576Z,165529.89
2019-05-01T23:07:16.814Z,165515.20
2019-05-01T23:09:42.110Z,165496.53
2019-05-01T23:12:10.726Z,165524.55
2019-05-01T23:14:39.460Z,165529.89
2019-05-01T23:17:34.939Z,165537.88
2019-05-01T23:20:05.630Z,165544.58
2019-05-01T23:22:34.984Z,165556.56
2019-05-01T23:25:04.671Z,165512.50
2019-05-01T23:27:32.852Z,165531.25
2019-05-01T23:30:01.951Z,165529.89
2019-05-01T23:32:30.097Z,165529.89
2019-05-01T23:34:58.793Z,165508.52
2019-05-01T23:37:27.007Z,165519.20
2019-05-01T23:39:55.851Z,165529.89
2019-05-01T23:42:24.154Z,165545.92
2019-05-01T23:44:52.574Z,165563.25
2019-05-01T23:47:21.898Z,165575.23
2019-05-01T23:49:52.592Z,165584.58
2019-05-01T23:52:20.633Z,165567.25
2019-05-01T23:54:48.834Z,165549.91
2019-05-01T23:57:18.749Z,165588.63
2019-05-01T23:59:47.988Z,165588.63
